createdAt,value
2018-12-11T00:04:12.829Z,88.52
2018-12-11T00:09:08.845Z,88.68
2018-12-11T00:14:04.889Z,88.55
2018-12-11T00:19:01.098Z,88.44
2018-12-11T00:23:57.189Z,88.75
2018-12-11T00:28:53.283Z,89.00
2018-12-11T00:33:49.293Z,88.94
2018-12-11T00:38:45.317Z,88.79
2018-12-11T00:43:41.427Z,88.52
2018-12-11T00:48:37.481Z,88.79
2018-12-11T00:53:33.512Z,88.73
2018-12-11T00:58:29.545Z,88.52
2018-12-11T01:03:25.672Z,88.27
2018-12-11T01:08:21.697Z,88.23
2018-12-11T01:13:17.737Z,87.64
2018-12-11T01:18:13.761Z,86.65
2018-12-11T01:23:09.800Z,86.78
2018-12-11T01:28:05.826Z,86.07
2018-12-11T01:33:01.840Z,86.61
2018-12-11T01:37:57.870Z,86.41
2018-12-11T01:42:54.012Z,86.95
2018-12-11T01:47:50.045Z,87.50
2018-12-11T01:52:46.079Z,87.90
2018-12-11T01:57:42.114Z,87.84
2018-12-11T02:02:38.914Z,88.34
2018-12-11T02:07:34.933Z,88.97
2018-12-11T02:12:30.957Z,88.82
2018-12-11T02:17:27.008Z,89.03
2018-12-11T02:22:23.032Z,89.20
2018-12-11T02:27:19.130Z,89.47
2018-12-11T02:32:19.504Z,89.30
2018-12-11T02:37:15.549Z,89.35
2018-12-11T02:42:11.606Z,89.79
2018-12-11T02:47:07.668Z,89.96
2018-12-11T02:52:03.693Z,89.89
2018-12-11T02:56:59.713Z,89.98
2018-12-11T03:01:57.243Z,90.95
2018-12-11T03:06:53.327Z,90.68
2018-12-11T03:11:49.346Z,90.50
2018-12-11T03:16:45.445Z,91.03
2018-12-11T03:21:42.787Z,90.71
2018-12-11T03:26:38.869Z,90.76
2018-12-11T03:31:36.857Z,90.49
2018-12-11T03:36:32.990Z,90.95
2018-12-11T03:41:29.238Z,90.69
2018-12-11T03:46:25.251Z,90.80
2018-12-11T03:51:21.293Z,90.85
2018-12-11T03:56:17.345Z,91.03
2018-12-11T04:01:13.452Z,91.32
2018-12-11T04:06:09.498Z,91.39
2018-12-11T04:11:05.514Z,90.95
2018-12-11T04:16:01.622Z,91.40
2018-12-11T04:20:57.674Z,90.61
2018-12-11T04:25:53.705Z,90.51
2018-12-11T04:30:49.885Z,90.94
2018-12-11T04:35:46.011Z,91.00
2018-12-11T04:40:42.065Z,90.97
2018-12-11T04:45:38.102Z,91.18
2018-12-11T04:50:34.142Z,91.15
2018-12-11T04:55:30.261Z,90.97
2018-12-11T05:00:26.297Z,90.77
2018-12-11T05:05:22.339Z,90.83
2018-12-11T05:10:18.373Z,90.62
2018-12-11T05:15:14.444Z,90.25
2018-12-11T05:20:10.498Z,90.39
2018-12-11T05:25:06.649Z,90.60
2018-12-11T05:30:04.109Z,90.31
2018-12-11T05:35:00.225Z,90.54
2018-12-11T05:39:56.266Z,90.54
2018-12-11T05:44:52.294Z,90.93
2018-12-11T05:49:48.334Z,90.84
2018-12-11T05:54:45.194Z,91.25
2018-12-11T05:59:41.233Z,91.18
2018-12-11T06:04:37.239Z,91.25
2018-12-11T06:09:33.283Z,91.65
2018-12-11T06:14:29.358Z,91.44
2018-12-11T06:19:25.386Z,91.24
2018-12-11T06:24:21.400Z,91.42
2018-12-11T06:29:17.457Z,90.79
2018-12-11T06:34:13.544Z,90.86
2018-12-11T06:39:09.614Z,91.63
2018-12-11T06:44:05.670Z,91.74
2018-12-11T06:49:01.733Z,91.47
2018-12-11T06:53:57.784Z,91.13
2018-12-11T06:58:53.842Z,91.41
2018-12-11T07:03:49.901Z,91.53
2018-12-11T07:08:45.977Z,91.03
2018-12-11T07:13:42.103Z,90.80
2018-12-11T07:18:38.233Z,90.71
2018-12-11T07:23:34.336Z,90.80
2018-12-11T07:28:30.428Z,90.69
2018-12-11T07:33:26.498Z,90.60
2018-12-11T07:38:22.580Z,90.27
2018-12-11T07:43:18.651Z,90.79
2018-12-11T07:48:14.757Z,90.58
2018-12-11T07:53:10.865Z,90.40
2018-12-11T07:58:06.929Z,90.62
2018-12-11T08:03:03.005Z,90.52
2018-12-11T08:07:59.044Z,90.87
2018-12-11T08:12:55.121Z,90.83
2018-12-11T08:17:51.151Z,90.86
2018-12-11T08:22:47.186Z,90.99
2018-12-11T08:27:43.254Z,90.92
2018-12-11T08:32:39.950Z,91.18
2018-12-11T08:37:36.004Z,90.80
2018-12-11T08:42:32.066Z,90.44
2018-12-11T08:47:28.173Z,90.03
2018-12-11T08:52:24.234Z,90.35
2018-12-11T08:57:20.449Z,90.64
2018-12-11T09:02:21.357Z,90.52
2018-12-11T09:07:17.422Z,90.09
2018-12-11T09:12:13.476Z,89.73
2018-12-11T09:17:10.483Z,89.36
2018-12-11T09:22:06.780Z,89.40
2018-12-11T09:27:02.874Z,89.52
2018-12-11T09:31:59.906Z,88.69
2018-12-11T09:36:56.084Z,88.57
2018-12-11T09:41:52.293Z,88.46
2018-12-11T09:46:48.411Z,88.32
2018-12-11T09:51:44.538Z,87.48
2018-12-11T09:56:41.471Z,86.99
2018-12-11T10:01:38.455Z,87.85
2018-12-11T10:06:36.374Z,87.45
2018-12-11T10:11:34.564Z,87.53
2018-12-11T10:16:31.275Z,87.05
2018-12-11T10:21:27.409Z,87.26
2018-12-11T10:26:23.598Z,86.58
2018-12-11T10:31:19.666Z,86.55
2018-12-11T10:36:15.896Z,86.43
2018-12-11T10:41:12.109Z,86.72
2018-12-11T10:46:08.190Z,86.81
2018-12-11T10:51:04.501Z,86.87
2018-12-11T10:56:00.570Z,86.40
2018-12-11T11:01:02.852Z,86.25
2018-12-11T11:05:58.947Z,86.55
2018-12-11T11:11:02.038Z,86.24
2018-12-11T11:15:58.084Z,85.96
2018-12-11T11:20:54.154Z,85.11
2018-12-11T11:25:50.310Z,85.56
2018-12-11T11:30:46.398Z,85.45
2018-12-11T11:35:43.793Z,85.53
2018-12-11T11:40:40.097Z,84.65
2018-12-11T11:45:36.624Z,84.50
2018-12-11T11:50:34.621Z,83.93
2018-12-11T11:55:32.033Z,83.11
2018-12-11T12:00:29.156Z,83.11
2018-12-11T12:05:25.625Z,82.79
2018-12-11T12:10:21.849Z,82.16
2018-12-11T12:15:18.046Z,81.72
2018-12-11T12:20:14.209Z,80.87
2018-12-11T12:25:10.370Z,81.57
2018-12-11T12:30:06.851Z,81.13
2018-12-11T12:35:03.510Z,80.62
2018-12-11T12:39:59.766Z,80.76
2018-12-11T12:44:55.977Z,80.73
2018-12-11T12:49:52.174Z,81.04
2018-12-11T12:54:48.230Z,82.00
2018-12-11T12:59:44.295Z,82.10
2018-12-11T13:04:40.446Z,81.64
2018-12-11T13:09:36.517Z,81.65
2018-12-11T13:14:32.610Z,82.35
2018-12-11T13:19:28.649Z,82.23
2018-12-11T13:24:24.735Z,82.00
2018-12-11T13:29:20.825Z,82.00
2018-12-11T13:34:16.912Z,82.37
2018-12-11T13:39:13.116Z,82.96
2018-12-11T13:44:09.412Z,82.77
2018-12-11T13:49:05.945Z,83.11
2018-12-11T13:54:02.009Z,82.88
2018-12-11T13:58:58.087Z,83.20
2018-12-11T14:03:54.263Z,82.97
2018-12-11T14:08:50.393Z,82.80
2018-12-11T14:13:46.503Z,82.91
2018-12-11T14:18:42.638Z,83.58
2018-12-11T14:23:38.807Z,83.93
2018-12-11T14:28:35.009Z,84.67
2018-12-11T14:33:31.092Z,85.56
2018-12-11T14:38:27.180Z,85.17
2018-12-11T14:43:23.329Z,85.86
2018-12-11T14:48:20.199Z,85.76
2018-12-11T14:53:16.347Z,85.87
2018-12-11T14:58:12.408Z,86.42
2018-12-11T15:03:08.718Z,86.94
2018-12-11T15:08:04.787Z,87.10
2018-12-11T15:13:01.104Z,86.86
2018-12-11T15:17:57.198Z,87.30
2018-12-11T15:22:53.499Z,86.97
2018-12-11T15:27:49.595Z,87.30
2018-12-11T15:32:46.462Z,87.48
2018-12-11T15:37:42.530Z,87.53
2018-12-11T15:42:38.645Z,87.20
2018-12-11T15:47:34.721Z,87.15
2018-12-11T15:52:30.752Z,87.08
2018-12-11T15:57:26.818Z,86.75
2018-12-11T16:02:23.560Z,86.72
2018-12-11T16:07:19.590Z,85.78
2018-12-11T16:12:15.640Z,86.60
2018-12-11T16:17:11.687Z,87.44
2018-12-11T16:22:07.695Z,87.52
2018-12-11T16:27:03.829Z,87.33
2018-12-11T16:32:06.668Z,87.41
2018-12-11T16:37:02.872Z,87.22
2018-12-11T16:41:58.929Z,87.04
2018-12-11T16:46:54.980Z,86.79
2018-12-11T16:51:51.002Z,86.80
2018-12-11T16:56:47.022Z,86.53
2018-12-11T17:01:43.070Z,86.76
2018-12-11T17:06:39.218Z,86.12
2018-12-11T17:11:35.426Z,85.97
2018-12-11T17:16:31.492Z,85.76
2018-12-11T17:21:27.570Z,86.39
2018-12-11T17:26:23.756Z,85.90
2018-12-11T17:31:19.802Z,86.19
2018-12-11T17:36:15.854Z,85.72
2018-12-11T17:41:12.329Z,85.75
2018-12-11T17:46:08.359Z,85.76
2018-12-11T17:51:04.716Z,85.31
2018-12-11T17:56:00.734Z,85.09
2018-12-11T18:00:56.908Z,84.58
2018-12-11T18:05:52.945Z,85.16
2018-12-11T18:10:48.989Z,85.92
2018-12-11T18:15:45.117Z,85.94
2018-12-11T18:20:41.326Z,86.66
2018-12-11T18:25:37.361Z,86.26
2018-12-11T18:30:33.447Z,86.46
2018-12-11T18:35:29.783Z,86.94
2018-12-11T18:40:26.999Z,87.24
2018-12-11T18:45:29.023Z,87.52
2018-12-11T18:50:30.678Z,87.66
2018-12-11T18:55:26.760Z,88.01
2018-12-11T19:00:27.150Z,88.89
2018-12-11T19:05:23.237Z,89.05
2018-12-11T19:10:19.383Z,89.39
2018-12-11T19:15:15.532Z,89.84
2018-12-11T19:20:11.684Z,89.83
2018-12-11T19:25:11.251Z,89.92
2018-12-11T19:30:07.415Z,89.53
2018-12-11T19:35:04.528Z,90.08
2018-12-11T19:40:02.180Z,90.17
2018-12-11T19:44:58.406Z,89.80
2018-12-11T19:49:54.441Z,89.64
2018-12-11T19:54:50.436Z,89.37
2018-12-11T19:59:46.459Z,89.38
2018-12-11T20:04:42.482Z,89.63
2018-12-11T20:09:40.552Z,90.27
2018-12-11T20:14:36.575Z,90.62
2018-12-11T20:19:32.613Z,91.40
2018-12-11T20:24:29.594Z,91.02
2018-12-11T20:29:29.908Z,91.04
2018-12-11T20:34:27.453Z,90.40
2018-12-11T20:39:24.386Z,89.80
2018-12-11T20:44:20.465Z,88.81
2018-12-11T20:49:16.820Z,88.53
2018-12-11T20:54:12.954Z,87.92
2018-12-11T20:59:10.250Z,88.26
2018-12-11T21:04:06.957Z,88.63
2018-12-11T21:09:06.737Z,87.97
2018-12-11T21:14:02.878Z,87.52
2018-12-11T21:18:59.249Z,87.23
2018-12-11T21:23:55.830Z,86.78
2018-12-11T21:28:51.953Z,85.65
2018-12-11T21:33:47.968Z,84.88
2018-12-11T21:38:43.991Z,84.40
2018-12-11T21:43:40.078Z,83.54
2018-12-11T21:48:36.229Z,83.09
2018-12-11T21:53:32.265Z,82.44
2018-12-11T21:58:36.489Z,80.89
2018-12-11T22:03:39.053Z,81.29
2018-12-11T22:08:39.723Z,80.32
2018-12-11T22:13:35.882Z,81.79
2018-12-11T22:18:31.965Z,80.94
2018-12-11T22:23:29.230Z,82.13
2018-12-11T22:28:25.458Z,80.02
2018-12-11T22:33:21.503Z,81.41
2018-12-11T22:38:18.419Z,80.29
2018-12-11T22:43:14.593Z,80.09
2018-12-11T22:48:10.621Z,79.32
2018-12-11T22:53:06.646Z,78.81
2018-12-11T22:58:02.703Z,79.86
2018-12-11T23:02:58.766Z,79.56
2018-12-11T23:07:54.790Z,78.01
2018-12-11T23:12:50.857Z,77.63
2018-12-11T23:17:46.868Z,77.54
2018-12-11T23:22:42.918Z,77.92
2018-12-11T23:27:38.942Z,79.10
2018-12-11T23:32:35.104Z,75.94
2018-12-11T23:37:31.135Z,77.26
2018-12-11T23:42:27.170Z,76.73
2018-12-11T23:47:23.198Z,77.69
2018-12-11T23:52:19.226Z,77.46
2018-12-11T23:57:15.265Z,76.64
